createdAt,value
2019-05-06T00:01:46.283Z,14.67
2019-05-06T00:04:17.175Z,14.65
2019-05-06T00:06:49.360Z,14.63
2019-05-06T00:09:24.725Z,14.62
2019-05-06T00:11:56.543Z,14.65
2019-05-06T00:14:28.381Z,14.69
2019-05-06T00:17:03.915Z,14.64
2019-05-06T00:19:38.606Z,14.55
2019-05-06T00:22:10.303Z,14.48
2019-05-06T00:24:43.996Z,14.45
2019-05-06T00:27:17.424Z,14.51
2019-05-06T00:29:50.065Z,14.44
2019-05-06T00:32:24.280Z,14.39
2019-05-06T00:34:55.046Z,14.30
2019-05-06T00:37:25.751Z,14.28
2019-05-06T00:39:57.918Z,14.34
2019-05-06T00:42:30.107Z,14.36
2019-05-06T00:45:01.127Z,14.36
2019-05-06T00:47:33.863Z,14.33
2019-05-06T00:50:06.091Z,14.27
2019-05-06T00:52:39.889Z,14.19
2019-05-06T00:55:13.817Z,14.20
2019-05-06T00:57:44.568Z,14.22
2019-05-06T01:00:17.982Z,14.21
2019-05-06T01:02:54.099Z,14.19
2019-05-06T01:05:27.522Z,14.19
2019-05-06T01:08:00.114Z,14.18
2019-05-06T01:10:31.069Z,14.20
2019-05-06T01:13:04.223Z,14.18
2019-05-06T01:15:36.798Z,14.15
2019-05-06T01:18:07.393Z,14.09
2019-05-06T01:20:38.191Z,14.09
2019-05-06T01:23:08.794Z,14.03
2019-05-06T01:25:40.727Z,14.03
2019-05-06T01:28:13.837Z,14.02
2019-05-06T01:30:45.097Z,13.92
2019-05-06T01:33:16.393Z,13.86
2019-05-06T01:35:47.215Z,13.76
2019-05-06T01:38:34.085Z,13.76
2019-05-06T01:41:19.405Z,13.71
2019-05-06T01:43:50.612Z,13.62
2019-05-06T01:46:21.531Z,13.52
2019-05-06T01:48:53.575Z,13.43
2019-05-06T01:51:25.836Z,13.48
2019-05-06T01:53:59.515Z,13.47
2019-05-06T01:56:30.217Z,13.40
2019-05-06T01:59:00.775Z,13.37
2019-05-06T02:01:31.360Z,13.35
2019-05-06T02:04:04.477Z,13.36
2019-05-06T02:06:35.252Z,13.35
2019-05-06T02:09:09.773Z,13.39
2019-05-06T02:11:44.232Z,13.40
2019-05-06T02:14:14.857Z,13.47
2019-05-06T02:16:45.435Z,13.55
2019-05-06T02:19:17.615Z,13.65
2019-05-06T02:21:54.235Z,13.69
2019-05-06T02:24:29.646Z,13.69
2019-05-06T02:27:00.995Z,13.70
2019-05-06T02:29:49.798Z,13.74
2019-05-06T02:32:32.087Z,13.75
2019-05-06T02:35:19.774Z,13.76
2019-05-06T02:37:55.911Z,13.76
2019-05-06T02:40:33.207Z,13.75
2019-05-06T02:43:04.335Z,13.70
2019-05-06T02:45:35.077Z,13.74
2019-05-06T02:48:13.954Z,13.71
2019-05-06T02:50:46.630Z,13.74
2019-05-06T02:53:23.598Z,13.79
2019-05-06T02:55:54.060Z,13.87
2019-05-06T02:58:26.744Z,13.88
2019-05-06T03:00:58.827Z,14.08
2019-05-06T03:03:33.617Z,14.09
2019-05-06T03:06:04.075Z,14.28
2019-05-06T03:08:36.363Z,14.40
2019-05-06T03:11:08.541Z,14.55
2019-05-06T03:13:39.171Z,14.72
2019-05-06T03:16:13.920Z,14.87
2019-05-06T03:18:43.739Z,14.85
2019-05-06T03:21:33.676Z,15.15
2019-05-06T03:24:19.007Z,15.39
2019-05-06T03:26:53.414Z,15.05
2019-05-06T03:29:25.354Z,14.56
2019-05-06T03:31:57.144Z,14.62
2019-05-06T03:34:56.363Z,14.40
2019-05-06T03:37:07.738Z,14.23
2019-05-06T03:39:37.856Z,14.17
2019-05-06T03:42:13.697Z,14.11
2019-05-06T03:44:44.734Z,14.28
2019-05-06T03:47:34.899Z,14.55
2019-05-06T03:50:06.533Z,14.91
2019-05-06T03:52:37.285Z,15.20
2019-05-06T03:55:07.924Z,15.47
2019-05-06T03:57:38.777Z,15.44
2019-05-06T04:00:15.526Z,15.43
2019-05-06T04:02:44.723Z,15.42
2019-05-06T04:05:15.449Z,15.43
2019-05-06T04:07:47.322Z,15.06
2019-05-06T04:10:18.021Z,15.11
2019-05-06T04:12:53.555Z,14.93
2019-05-06T04:15:26.656Z,14.81
2019-05-06T04:17:58.670Z,14.77
2019-05-06T04:20:36.673Z,14.75
2019-05-06T04:23:16.249Z,14.85
2019-05-06T04:26:03.595Z,14.89
2019-05-06T04:28:36.366Z,14.78
2019-05-06T04:31:07.079Z,14.80
2019-05-06T04:33:37.700Z,15.06
2019-05-06T04:36:08.424Z,15.10
2019-05-06T04:38:39.042Z,15.30
2019-05-06T04:41:09.681Z,15.21
2019-05-06T04:43:40.334Z,15.17
2019-05-06T04:46:13.603Z,15.35
2019-05-06T04:48:43.940Z,15.51
2019-05-06T04:51:14.656Z,15.36
2019-05-06T04:53:46.882Z,15.60
2019-05-06T04:56:17.675Z,15.68
2019-05-06T04:58:48.552Z,15.80
2019-05-06T05:01:23.608Z,15.95
2019-05-06T05:03:54.258Z,16.01
2019-05-06T05:06:25.618Z,16.15
2019-05-06T05:08:56.242Z,16.11
2019-05-06T05:11:29.079Z,16.25
2019-05-06T05:14:03.781Z,16.18
2019-05-06T05:16:36.410Z,16.32
2019-05-06T05:19:12.927Z,16.49
2019-05-06T05:21:48.088Z,16.41
2019-05-06T05:24:23.420Z,16.34
2019-05-06T05:26:56.275Z,16.66
2019-05-06T05:29:32.515Z,16.96
2019-05-06T05:32:03.572Z,17.21
2019-05-06T05:34:39.797Z,17.17
2019-05-06T05:37:12.029Z,17.60
2019-05-06T05:39:43.690Z,17.54
2019-05-06T05:42:18.999Z,17.50
2019-05-06T05:44:52.764Z,17.67
2019-05-06T05:47:25.465Z,17.87
2019-05-06T05:50:04.025Z,17.66
2019-05-06T05:52:34.736Z,17.64
2019-05-06T05:55:06.029Z,18.39
2019-05-06T05:57:38.352Z,18.71
2019-05-06T06:00:09.656Z,18.89
2019-05-06T06:02:43.684Z,19.87
2019-05-06T06:05:13.239Z,20.37
2019-05-06T06:07:43.854Z,19.53
2019-05-06T06:10:22.688Z,19.17
2019-05-06T06:12:54.903Z,20.43
2019-05-06T06:15:27.817Z,21.63
2019-05-06T06:18:02.980Z,21.58
2019-05-06T06:20:52.748Z,22.12
2019-05-06T06:23:24.480Z,22.13
2019-05-06T06:25:55.094Z,22.12
2019-05-06T06:28:25.827Z,20.88
2019-05-06T06:31:03.018Z,21.85
2019-05-06T06:33:33.541Z,22.16
2019-05-06T06:36:08.659Z,21.29
2019-05-06T06:38:56.131Z,21.48
2019-05-06T06:41:26.787Z,21.07
2019-05-06T06:44:02.298Z,20.22
2019-05-06T06:46:33.363Z,21.47
2019-05-06T06:49:03.986Z,21.83
2019-05-06T06:51:34.639Z,22.18
2019-05-06T06:54:05.849Z,21.88
2019-05-06T06:56:44.299Z,21.81
2019-05-06T06:59:18.215Z,21.44
2019-05-06T07:02:02.845Z,21.28
2019-05-06T07:04:52.611Z,21.08
2019-05-06T07:07:39.520Z,21.54
2019-05-06T07:09:57.321Z,22.07
2019-05-06T07:12:27.955Z,22.18
2019-05-06T07:15:02.604Z,22.36
2019-05-06T07:17:33.382Z,22.22
2019-05-06T07:20:06.290Z,21.91
2019-05-06T07:22:37.284Z,21.83
2019-05-06T07:25:08.906Z,21.86
2019-05-06T07:27:39.569Z,22.38
2019-05-06T07:30:12.368Z,21.78
2019-05-06T07:32:43.457Z,21.56
2019-05-06T07:35:14.068Z,22.54
2019-05-06T07:37:46.316Z,22.86
2019-05-06T07:40:16.930Z,22.77
2019-05-06T07:42:49.320Z,23.10
2019-05-06T07:45:27.502Z,23.41
2019-05-06T07:48:03.898Z,23.45
2019-05-06T07:50:34.577Z,23.22
2019-05-06T07:53:08.581Z,23.56
2019-05-06T07:55:39.555Z,23.74
2019-05-06T07:58:10.196Z,23.29
2019-05-06T08:00:42.260Z,23.31
2019-05-06T08:03:15.566Z,23.17
2019-05-06T08:05:55.799Z,23.26
2019-05-06T08:08:23.668Z,23.26
2019-05-06T08:10:54.304Z,23.04
2019-05-06T08:13:25.038Z,23.26
2019-05-06T08:15:55.823Z,23.00
2019-05-06T08:18:26.538Z,22.89
2019-05-06T08:20:58.980Z,23.40
2019-05-06T08:23:34.183Z,23.48
2019-05-06T08:26:12.051Z,23.50
2019-05-06T08:28:41.393Z,24.22
2019-05-06T08:31:12.982Z,23.87
2019-05-06T08:33:44.085Z,23.87
2019-05-06T08:36:16.264Z,24.02
2019-05-06T08:38:48.423Z,24.15
2019-05-06T08:41:19.074Z,24.26
2019-05-06T08:43:52.755Z,24.07
2019-05-06T08:46:23.834Z,24.06
2019-05-06T08:48:54.457Z,24.14
2019-05-06T08:51:42.881Z,24.14
2019-05-06T08:54:22.724Z,24.32
2019-05-06T08:56:53.254Z,24.18
2019-05-06T08:59:24.152Z,23.67
2019-05-06T09:01:56.531Z,23.67
2019-05-06T09:04:27.419Z,23.76
2019-05-06T09:06:58.068Z,24.16
2019-05-06T09:09:28.971Z,24.19
2019-05-06T09:11:59.692Z,23.34
2019-05-06T09:14:32.725Z,23.34
2019-05-06T09:17:04.024Z,23.30
2019-05-06T09:19:34.642Z,23.09
2019-05-06T09:22:05.341Z,23.34
2019-05-06T09:24:35.946Z,23.43
2019-05-06T09:27:14.232Z,23.32
2019-05-06T09:29:51.983Z,23.13
2019-05-06T09:32:23.751Z,23.11
2019-05-06T09:34:56.345Z,23.11
2019-05-06T09:37:26.953Z,23.44
2019-05-06T09:39:57.636Z,23.54
2019-05-06T09:42:28.290Z,23.65
2019-05-06T09:45:02.042Z,23.65
2019-05-06T09:47:39.671Z,23.57
2019-05-06T09:50:12.942Z,23.64
2019-05-06T09:52:43.870Z,23.69
2019-05-06T09:55:22.021Z,23.83
2019-05-06T09:57:56.292Z,24.03
2019-05-06T10:00:29.126Z,24.44
2019-05-06T10:02:59.722Z,24.18
2019-05-06T10:05:30.458Z,23.73
2019-05-06T10:08:03.331Z,24.28
2019-05-06T10:10:34.234Z,24.65
2019-05-06T10:25:17.148Z,24.73
2019-05-06T10:27:49.356Z,24.65
2019-05-06T10:30:22.457Z,24.73
2019-05-06T10:32:54.085Z,24.89
2019-05-06T10:35:29.480Z,24.68
2019-05-06T10:38:13.279Z,24.14
2019-05-06T10:41:04.150Z,25.25
2019-05-06T10:43:56.625Z,24.86
2019-05-06T10:46:27.296Z,25.04
2019-05-06T10:48:57.949Z,24.76
2019-05-06T10:51:48.345Z,25.11
2019-05-06T10:54:18.948Z,25.17
2019-05-06T10:56:56.909Z,25.03
2019-05-06T10:59:23.880Z,25.49
2019-05-06T11:02:14.416Z,25.52
2019-05-06T11:04:45.196Z,25.69
2019-05-06T11:07:31.071Z,25.47
2019-05-06T11:09:53.094Z,25.43
2019-05-06T11:12:23.307Z,25.49
2019-05-06T11:14:55.809Z,25.57
2019-05-06T11:17:26.403Z,25.66
2019-05-06T11:19:57.009Z,24.85
2019-05-06T11:22:27.577Z,25.48
2019-05-06T11:25:03.199Z,25.75
2019-05-06T11:27:37.543Z,25.39
2019-05-06T11:42:55.383Z,25.37
2019-05-06T11:45:26.085Z,25.28
2019-05-06T11:47:56.695Z,25.30
2019-05-06T11:50:27.327Z,24.90
2019-05-06T11:52:57.903Z,24.83
2019-05-06T11:55:33.736Z,25.02
2019-05-06T11:58:02.539Z,24.98
2019-05-06T12:00:35.922Z,24.96
2019-05-06T12:03:06.702Z,24.53
2019-05-06T12:05:37.324Z,24.64
2019-05-06T12:08:08.527Z,24.38
2019-05-06T12:10:39.348Z,24.64
2019-05-06T12:13:12.215Z,24.43
2019-05-06T12:15:42.532Z,24.54
2019-05-06T12:18:13.115Z,24.30
2019-05-06T12:20:45.018Z,24.73
2019-05-06T12:23:17.235Z,24.62
2019-05-06T12:25:47.817Z,24.22
2019-05-06T12:28:18.578Z,24.14
2019-05-06T12:30:49.233Z,24.01
2019-05-06T12:33:32.733Z,24.17
2019-05-06T12:36:04.311Z,24.07
2019-05-06T12:38:38.354Z,24.02
2019-05-06T12:41:08.995Z,24.17
2019-05-06T12:43:43.118Z,24.08
2019-05-06T12:46:15.271Z,24.24
2019-05-06T12:48:49.312Z,24.41
2019-05-06T12:51:20.060Z,24.60
2019-05-06T12:53:52.905Z,24.86
2019-05-06T12:56:23.359Z,25.05
2019-05-06T12:58:54.087Z,25.25
2019-05-06T13:01:24.748Z,25.37
2019-05-06T13:03:55.376Z,24.60
2019-05-06T13:06:26.664Z,24.34
2019-05-06T13:09:01.720Z,23.88
2019-05-06T13:11:29.943Z,24.64
2019-05-06T13:14:03.824Z,24.87
2019-05-06T13:16:33.567Z,24.01
2019-05-06T13:19:04.254Z,24.28
2019-05-06T13:21:34.921Z,24.29
2019-05-06T13:24:07.682Z,24.27
2019-05-06T13:26:38.411Z,24.69
2019-05-06T13:29:13.355Z,24.71
2019-05-06T13:31:44.030Z,24.05
2019-05-06T13:34:16.723Z,24.14
2019-05-06T13:36:47.943Z,24.52
2019-05-06T13:39:18.614Z,24.73
2019-05-06T13:41:52.701Z,24.52
2019-05-06T13:44:23.074Z,24.53
2019-05-06T13:46:54.157Z,24.47
2019-05-06T13:49:38.202Z,24.38
2019-05-06T13:52:09.608Z,24.56
2019-05-06T13:54:42.202Z,24.49
2019-05-06T13:57:12.765Z,24.34
2019-05-06T13:59:44.248Z,24.39
2019-05-06T14:02:19.524Z,23.77
2019-05-06T14:04:52.515Z,23.69
2019-05-06T14:07:24.267Z,23.70
2019-05-06T14:09:54.844Z,23.72
2019-05-06T14:12:25.506Z,24.05
2019-05-06T14:14:56.152Z,23.68
2019-05-06T14:17:26.873Z,23.63
2019-05-06T14:19:57.595Z,23.42
2019-05-06T14:22:28.225Z,23.48
2019-05-06T14:25:00.419Z,23.26
2019-05-06T14:27:33.977Z,23.13
2019-05-06T14:30:15.049Z,23.04
2019-05-06T14:32:45.721Z,22.98
2019-05-06T14:35:16.783Z,22.77
2019-05-06T14:37:47.427Z,22.54
2019-05-06T14:40:22.436Z,22.19
2019-05-06T14:42:53.121Z,22.25
2019-05-06T14:45:23.985Z,22.23
2019-05-06T15:00:28.841Z,22.05
2019-05-06T15:02:59.478Z,21.84
2019-05-06T15:05:32.239Z,21.70
2019-05-06T15:08:05.783Z,21.67
2019-05-06T15:10:36.597Z,21.63
2019-05-06T15:13:07.697Z,21.74
2019-05-06T15:15:38.331Z,21.64
2019-05-06T15:18:09.070Z,21.57
2019-05-06T15:20:44.093Z,21.49
2019-05-06T15:23:19.271Z,21.57
2019-05-06T15:25:52.248Z,21.51
2019-05-06T15:28:23.363Z,21.49
2019-05-06T15:31:13.925Z,21.41
2019-05-06T15:33:52.735Z,21.52
2019-05-06T15:36:27.114Z,21.45
2019-05-06T15:38:57.693Z,21.37
2019-05-06T15:41:31.932Z,21.41
2019-05-06T15:44:03.160Z,21.35
2019-05-06T15:46:33.836Z,21.28
2019-05-06T15:49:04.530Z,21.22
2019-05-06T15:51:35.496Z,21.25
2019-05-06T15:54:06.768Z,21.12
2019-05-06T15:56:39.018Z,20.95
2019-05-06T15:59:11.980Z,20.84
2019-05-06T16:01:46.558Z,20.76
2019-05-06T16:04:17.382Z,20.81
2019-05-06T16:06:48.084Z,20.73
2019-05-06T16:09:20.178Z,20.66
2019-05-06T16:11:53.190Z,20.58
2019-05-06T16:14:23.245Z,20.55
2019-05-06T16:16:55.511Z,20.51
2019-05-06T16:19:26.064Z,20.53
2019-05-06T16:21:58.085Z,20.36
2019-05-06T16:24:36.348Z,20.15
2019-05-06T16:27:07.048Z,20.16
2019-05-06T16:29:37.699Z,19.95
2019-05-06T16:32:09.481Z,19.82
2019-05-06T16:34:40.261Z,19.71
2019-05-06T16:37:12.647Z,19.66
2019-05-06T16:39:43.395Z,19.58
2019-05-06T16:42:14.091Z,19.39
2019-05-06T16:44:45.442Z,19.14
2019-05-06T16:47:17.824Z,18.94
2019-05-06T16:49:50.030Z,18.81
2019-05-06T16:52:22.452Z,18.64
2019-05-06T16:54:53.128Z,18.50
2019-05-06T16:57:23.817Z,18.34
2019-05-06T16:59:54.507Z,18.19
2019-05-06T17:02:28.511Z,18.08
2019-05-06T17:05:19.242Z,18.01
2019-05-06T17:07:52.602Z,17.90
2019-05-06T17:10:23.321Z,17.85
2019-05-06T17:12:53.992Z,17.83
2019-05-06T17:15:24.563Z,17.76
2019-05-06T17:18:17.795Z,17.73
2019-05-06T17:20:48.486Z,17.59
2019-05-06T17:23:22.490Z,17.45
2019-05-06T17:25:53.324Z,17.36
2019-05-06T17:28:25.671Z,17.29
2019-05-06T17:30:57.918Z,17.20
2019-05-06T17:33:36.424Z,17.19
2019-05-06T17:36:12.644Z,17.11
2019-05-06T17:38:42.666Z,17.01
2019-05-06T17:41:13.301Z,17.02
2019-05-06T17:43:45.462Z,16.94
2019-05-06T17:46:17.669Z,16.87
2019-05-06T17:48:52.885Z,16.86
2019-05-06T17:51:33.804Z,16.83
2019-05-06T17:54:04.787Z,16.77
2019-05-06T17:56:35.584Z,16.70
2019-05-06T17:59:06.385Z,16.67
2019-05-06T18:01:39.299Z,16.66
2019-05-06T18:04:09.952Z,16.60
2019-05-06T18:06:42.461Z,16.64
2019-05-06T18:09:13.387Z,16.60
2019-05-06T18:11:57.902Z,16.58
2019-05-06T18:14:16.506Z,16.59
2019-05-06T18:16:47.393Z,16.56
2019-05-06T18:19:18.168Z,16.48
2019-05-06T18:21:48.833Z,16.42
2019-05-06T18:24:19.929Z,16.39
2019-05-06T18:26:57.013Z,16.28
2019-05-06T18:29:35.444Z,16.33
2019-05-06T18:32:07.631Z,16.28
2019-05-06T18:34:41.978Z,16.35
2019-05-06T18:37:14.718Z,16.22
2019-05-06T18:39:48.280Z,16.12
2019-05-06T18:42:21.452Z,16.14
2019-05-06T18:44:51.448Z,16.15
2019-05-06T18:47:22.413Z,16.02
2019-05-06T18:49:57.390Z,15.92
2019-05-06T18:52:28.015Z,15.82
2019-05-06T18:54:58.728Z,15.85
2019-05-06T18:57:32.289Z,15.75
2019-05-06T19:00:03.098Z,15.71
2019-05-06T19:02:35.044Z,15.69
2019-05-06T19:05:20.060Z,15.58
2019-05-06T19:07:52.335Z,15.47
2019-05-06T19:10:24.760Z,15.40
2019-05-06T19:12:55.354Z,15.50
2019-05-06T19:15:27.605Z,15.37
2019-05-06T19:17:58.308Z,15.34
2019-05-06T19:20:29.021Z,15.35
2019-05-06T19:23:02.339Z,15.25
2019-05-06T19:25:34.699Z,15.18
2019-05-06T19:28:05.105Z,15.21
2019-05-06T19:30:35.723Z,15.16
2019-05-06T19:33:09.139Z,15.14
2019-05-06T19:35:39.780Z,15.25
2019-05-06T19:38:12.483Z,15.35
2019-05-06T19:40:42.781Z,15.49
2019-05-06T19:43:13.400Z,15.57
2019-05-06T19:45:44.030Z,15.60
2019-05-06T19:48:14.662Z,15.73
2019-05-06T19:50:45.397Z,15.74
2019-05-06T19:53:16.010Z,15.91
2019-05-06T19:55:47.168Z,15.98
2019-05-06T19:58:17.810Z,16.09
2019-05-06T20:00:48.385Z,16.07
2019-05-06T20:03:20.297Z,16.06
2019-05-06T20:05:55.299Z,16.16
2019-05-06T20:08:33.592Z,16.20
2019-05-06T20:11:22.580Z,16.29
2019-05-06T20:13:53.038Z,16.48
2019-05-06T20:16:23.678Z,16.57
2019-05-06T20:18:54.327Z,16.61
2019-05-06T20:21:25.075Z,16.62
2019-05-06T20:23:55.782Z,16.69
2019-05-06T20:26:26.505Z,16.72
2019-05-06T20:28:57.253Z,16.68
2019-05-06T20:31:28.680Z,16.71
2019-05-06T20:33:59.266Z,16.70
2019-05-06T20:36:29.850Z,16.72
2019-05-06T20:39:02.571Z,16.74
2019-05-06T20:41:32.972Z,16.75
2019-05-06T20:44:03.738Z,16.74
2019-05-06T20:46:34.412Z,16.74
2019-05-06T20:49:05.041Z,16.75
2019-05-06T20:51:35.647Z,16.74
2019-05-06T20:54:06.256Z,16.76
2019-05-06T20:56:36.822Z,16.70
2019-05-06T20:59:07.462Z,16.67
2019-05-06T21:01:38.264Z,16.71
2019-05-06T21:04:09.073Z,16.63
2019-05-06T21:06:39.865Z,16.59
2019-05-06T21:09:12.573Z,16.56
2019-05-06T21:11:42.987Z,16.55
2019-05-06T21:14:13.571Z,16.63
2019-05-06T21:16:44.125Z,16.60
2019-05-06T21:19:16.317Z,16.56
2019-05-06T21:21:46.866Z,16.54
2019-05-06T21:24:22.477Z,16.52
2019-05-06T21:26:53.231Z,16.55
2019-05-06T21:29:24.078Z,16.51
2019-05-06T21:31:54.762Z,16.56
2019-05-06T21:34:25.430Z,16.51
2019-05-06T21:36:56.601Z,16.51
2019-05-06T21:39:27.309Z,16.54
2019-05-06T21:41:57.865Z,16.49
2019-05-06T21:44:28.673Z,16.59
2019-05-06T21:46:59.427Z,16.55
2019-05-06T21:49:32.514Z,16.51
2019-05-06T21:52:02.426Z,16.50
2019-05-06T21:54:33.021Z,16.55
2019-05-06T21:57:03.605Z,16.59
2019-05-06T21:59:34.391Z,16.61
2019-05-06T22:02:07.033Z,16.61
2019-05-06T22:04:37.687Z,16.60
2019-05-06T22:07:08.262Z,16.59
2019-05-06T22:09:38.869Z,16.59
2019-05-06T22:12:09.452Z,16.55
2019-05-06T22:14:42.141Z,16.60
2019-05-06T22:17:14.128Z,16.58
2019-05-06T22:19:44.900Z,16.60
2019-05-06T22:22:20.272Z,16.60
2019-05-06T22:24:55.239Z,16.61
2019-05-06T22:27:22.830Z,16.63
2019-05-06T22:29:53.458Z,16.55
2019-05-06T22:32:24.241Z,16.53
2019-05-06T22:34:54.928Z,16.46
2019-05-06T22:37:25.545Z,16.44
2019-05-06T22:39:56.094Z,16.46
2019-05-06T22:42:26.721Z,16.46
2019-05-06T22:44:57.415Z,16.39
2019-05-06T22:47:28.155Z,16.41
2019-05-06T22:49:58.820Z,16.43
2019-05-06T22:52:29.512Z,16.42
2019-05-06T22:55:03.758Z,16.40
2019-05-06T22:57:33.114Z,16.43
2019-05-06T23:00:08.418Z,16.41
2019-05-06T23:02:40.570Z,16.40
2019-05-06T23:05:12.201Z,16.42
2019-05-06T23:07:42.967Z,16.40
2019-05-06T23:10:14.092Z,16.47
2019-05-06T23:12:44.694Z,16.44
2019-05-06T23:15:15.341Z,16.38
2019-05-06T23:17:45.913Z,16.36
2019-05-06T23:20:16.741Z,16.33
2019-05-06T23:22:47.431Z,16.31
2019-05-06T23:25:18.583Z,16.27
2019-05-06T23:27:49.245Z,16.26
2019-05-06T23:30:19.866Z,16.30
2019-05-06T23:32:52.858Z,16.28
2019-05-06T23:35:22.828Z,16.32
2019-05-06T23:38:29.771Z,16.35
2019-05-06T23:41:36.413Z,16.33
2019-05-06T23:44:46.178Z,16.23
2019-05-06T23:47:53.138Z,16.23
2019-05-06T23:51:00.016Z,16.25
2019-05-06T23:54:07.128Z,16.26
2019-05-06T23:56:45.421Z,16.21
2019-05-06T23:59:17.985Z,16.15
